sensor_id;sensor_type;location;lat;lon;timestamp;pressure;altitude;pressure_sealevel;temperature;humidity
64514;BME280;50890;34.186;-118.630;2023-01-15T00:00:09;98113.27;;;16.65;45.10
64514;BME280;50890;34.186;-118.630;2023-01-15T00:02:41;98119.36;;;16.64;45.12
64514;BME280;50890;34.186;-118.630;2023-01-15T00:05:12;98138.97;;;16.68;45.08
64514;BME280;50890;34.186;-118.630;2023-01-15T00:07:43;98142.09;;;16.89;45.06
64514;BME280;50890;34.186;-118.630;2023-01-15T00:10:13;98130.21;;;16.67;45.07
64514;BME280;50890;34.186;-118.630;2023-01-15T00:12:43;98127.19;;;16.69;45.10
64514;BME280;50890;34.186;-118.630;2023-01-15T00:15:13;98130.09;;;16.69;45.07
64514;BME280;50890;34.186;-118.630;2023-01-15T00:17:44;98128.85;;;16.74;44.99
64514;BME280;50890;34.186;-118.630;2023-01-15T00:20:14;98135.14;;;16.75;45.01
64514;BME280;50890;34.186;-118.630;2023-01-15T00:22:44;98144.27;;;16.76;45.09
64514;BME280;50890;34.186;-118.630;2023-01-15T00:25:15;98153.06;;;16.78;45.02
64514;BME280;50890;34.186;-118.630;2023-01-15T00:27:45;98163.99;;;17.00;44.97
64514;BME280;50890;34.186;-118.630;2023-01-15T00:30:17;98173.51;;;16.79;45.00
64514;BME280;50890;34.186;-118.630;2023-01-15T00:32:47;98175.19;;;16.74;45.09
64514;BME280;50890;34.186;-118.630;2023-01-15T00:35:18;98163.48;;;16.77;45.04
64514;BME280;50890;34.186;-118.630;2023-01-15T00:37:49;98162.04;;;16.76;45.06
64514;BME280;50890;34.186;-118.630;2023-01-15T00:40:20;98161.81;;;16.76;45.06
64514;BME280;50890;34.186;-118.630;2023-01-15T00:42:51;98156.67;;;16.99;45.06
64514;BME280;50890;34.186;-118.630;2023-01-15T00:45:21;98156.99;;;16.92;45.18
64514;BME280;50890;34.186;-118.630;2023-01-15T00:47:51;98162.97;;;16.77;45.05
64514;BME280;50890;34.186;-118.630;2023-01-15T00:50:21;98163.73;;;16.99;45.08
64514;BME280;50890;34.186;-118.630;2023-01-15T00:52:52;98153.51;;;16.94;45.15
64514;BME280;50890;34.186;-118.630;2023-01-15T00:55:22;98154.29;;;16.84;44.94
64514;BME280;50890;34.186;-118.630;2023-01-15T00:57:52;98152.26;;;16.77;45.04
64514;BME280;50890;34.186;-118.630;2023-01-15T01:00:23;98169.40;;;16.81;44.98
64514;BME280;50890;34.186;-118.630;2023-01-15T01:02:53;98174.22;;;17.03;44.97
64514;BME280;50890;34.186;-118.630;2023-01-15T01:05:24;98172.11;;;16.87;44.92
64514;BME280;50890;34.186;-118.630;2023-01-15T01:07:54;98166.00;;;16.89;44.92
64514;BME280;50890;34.186;-118.630;2023-01-15T01:10:25;98176.20;;;16.61;44.98
64514;BME280;50890;34.186;-118.630;2023-01-15T01:12:55;98172.01;;;17.10;44.95
64514;BME280;50890;34.186;-118.630;2023-01-15T01:15:26;98161.53;;;16.87;44.94
64514;BME280;50890;34.186;-118.630;2023-01-15T01:17:56;98158.12;;;16.89;44.95
64514;BME280;50890;34.186;-118.630;2023-01-15T01:20:25;98121.33;;;16.94;44.87
64514;BME280;50890;34.186;-118.630;2023-01-15T01:22:56;98116.50;;;16.95;44.80
64514;BME280;50890;34.186;-118.630;2023-01-15T01:25:26;98108.76;;;16.85;44.97
64514;BME280;50890;34.186;-118.630;2023-01-15T01:27:56;98128.03;;;16.66;44.95
64514;BME280;50890;34.186;-118.630;2023-01-15T01:30:27;98141.71;;;16.86;45.04
64514;BME280;50890;34.186;-118.630;2023-01-15T01:32:57;98144.63;;;16.66;44.96
64514;BME280;50890;34.186;-118.630;2023-01-15T01:35:29;98160.42;;;16.98;44.81
64514;BME280;50890;34.186;-118.630;2023-01-15T01:37:59;98153.26;;;17.01;44.76
64514;BME280;50890;34.186;-118.630;2023-01-15T01:40:29;98145.59;;;16.94;44.88
64514;BME280;50890;34.186;-118.630;2023-01-15T01:42:59;98145.68;;;16.94;44.87
64514;BME280;50890;34.186;-118.630;2023-01-15T01:45:33;98147.44;;;17.12;44.94
64514;BME280;50890;34.186;-118.630;2023-01-15T01:48:05;98139.43;;;16.88;44.94
64514;BME280;50890;34.186;-118.630;2023-01-15T01:50:35;98121.45;;;16.91;44.90
64514;BME280;50890;34.186;-118.630;2023-01-15T01:53:09;98111.13;;;16.89;44.93
64514;BME280;50890;34.186;-118.630;2023-01-15T01:55:40;98108.65;;;16.88;44.95
64514;BME280;50890;34.186;-118.630;2023-01-15T01:58:11;98111.43;;;16.89;44.93
64514;BME280;50890;34.186;-118.630;2023-01-15T02:00:47;98106.92;;;16.92;44.86
64514;BME280;50890;34.186;-118.630;2023-01-15T02:03:19;98110.75;;;16.89;44.90
64514;BME280;50890;34.186;-118.630;2023-01-15T02:05:55;98109.12;;;16.91;44.87
64514;BME280;50890;34.186;-118.630;2023-01-15T02:08:26;98107.68;;;16.90;44.87
64514;BME280;50890;34.186;-118.630;2023-01-15T02:10:57;98102.27;;;16.91;44.86
64514;BME280;50890;34.186;-118.630;2023-01-15T02:13:34;98105.62;;;17.05;45.05
64514;BME280;50890;34.186;-118.630;2023-01-15T02:16:12;98099.26;;;16.92;44.91
64514;BME280;50890;34.186;-118.630;2023-01-15T02:18:49;98095.37;;;16.95;44.88
64514;BME280;50890;34.186;-118.630;2023-01-15T02:21:26;98100.33;;;17.05;44.69
64514;BME280;50890;34.186;-118.630;2023-01-15T02:24:10;98092.95;;;17.11;44.64
64514;BME280;50890;34.186;-118.630;2023-01-15T02:27:06;98074.77;;;17.05;44.68
64514;BME280;50890;34.186;-118.630;2023-01-15T02:29:47;98071.32;;;16.84;44.66
64514;BME280;50890;34.186;-118.630;2023-01-15T02:32:27;98068.87;;;17.03;44.70
64514;BME280;50890;34.186;-118.630;2023-01-15T02:35:04;98080.47;;;16.99;44.76
64514;BME280;50890;34.186;-118.630;2023-01-15T02:37:39;98084.18;;;17.02;44.74
64514;BME280;50890;34.186;-118.630;2023-01-15T02:40:12;98092.38;;;16.94;44.85
64514;BME280;50890;34.186;-118.630;2023-01-15T02:42:44;98084.10;;;17.03;44.74
64514;BME280;50890;34.186;-118.630;2023-01-15T02:45:18;98081.53;;;16.99;44.78
64514;BME280;50890;34.186;-118.630;2023-01-15T02:47:53;98079.40;;;16.96;44.81
64514;BME280;50890;34.186;-118.630;2023-01-15T02:50:27;98083.16;;;17.01;44.76
64514;BME280;50890;34.186;-118.630;2023-01-15T02:53:02;98082.62;;;16.97;44.81
64514;BME280;50890;34.186;-118.630;2023-01-15T02:55:36;98068.35;;;16.89;44.92
64514;BME280;50890;34.186;-118.630;2023-01-15T02:58:13;98063.22;;;17.20;44.78
64514;BME280;50890;34.186;-118.630;2023-01-15T03:00:47;98056.95;;;16.99;44.75
64514;BME280;50890;34.186;-118.630;2023-01-15T03:03:23;98059.19;;;17.02;44.70
64514;BME280;50890;34.186;-118.630;2023-01-15T03:05:59;98062.82;;;17.01;44.70
64514;BME280;50890;34.186;-118.630;2023-01-15T03:08:33;98080.08;;;16.97;44.80
64514;BME280;50890;34.186;-118.630;2023-01-15T03:11:06;98071.31;;;16.77;44.74
64514;BME280;50890;34.186;-118.630;2023-01-15T03:13:46;98056.23;;;16.74;44.81
64514;BME280;50890;34.186;-118.630;2023-01-15T03:16:24;98050.56;;;17.25;44.76
64514;BME280;50890;34.186;-118.630;2023-01-15T03:19:01;98057.59;;;17.04;44.75
64514;BME280;50890;34.186;-118.630;2023-01-15T03:21:45;98066.40;;;17.07;44.69
64514;BME280;50890;34.186;-118.630;2023-01-15T03:24:23;98063.94;;;17.10;44.64
64514;BME280;50890;34.186;-118.630;2023-01-15T03:26:54;98062.02;;;17.16;44.52
64514;BME280;50890;34.186;-118.630;2023-01-15T03:29:27;98050.05;;;17.06;44.69
64514;BME280;50890;34.186;-118.630;2023-01-15T03:32:00;98044.75;;;17.04;44.70
64514;BME280;50890;34.186;-118.630;2023-01-15T03:34:37;98058.39;;;16.60;44.64
64514;BME280;50890;34.186;-118.630;2023-01-15T03:37:09;98053.28;;;17.07;44.67
64514;BME280;50890;34.186;-118.630;2023-01-15T03:39:40;98045.21;;;17.05;44.71
64514;BME280;50890;34.186;-118.630;2023-01-15T03:42:19;98038.08;;;17.02;44.74
64514;BME280;50890;34.186;-118.630;2023-01-15T03:44:58;98018.70;;;17.11;44.63
64514;BME280;50890;34.186;-118.630;2023-01-15T03:47:39;98010.15;;;17.17;44.52
64514;BME280;50890;34.186;-118.630;2023-01-15T03:50:15;97998.93;;;16.94;44.54
64514;BME280;50890;34.186;-118.630;2023-01-15T03:52:51;98004.51;;;17.07;44.66
64514;BME280;50890;34.186;-118.630;2023-01-15T03:55:33;98011.81;;;17.07;44.67
64514;BME280;50890;34.186;-118.630;2023-01-15T03:58:11;98016.28;;;17.06;44.67
64514;BME280;50890;34.186;-118.630;2023-01-15T04:00:46;98021.92;;;17.08;44.65
64514;BME280;50890;34.186;-118.630;2023-01-15T04:03:19;98030.83;;;17.09;44.67
64514;BME280;50890;34.186;-118.630;2023-01-15T04:05:53;98030.37;;;17.06;44.67
64514;BME280;50890;34.186;-118.630;2023-01-15T04:08:25;98015.66;;;17.10;44.70
64514;BME280;50890;34.186;-118.630;2023-01-15T04:10:58;98019.55;;;16.86;44.71
64514;BME280;50890;34.186;-118.630;2023-01-15T04:13:29;98028.78;;;17.15;44.70
64514;BME280;50890;34.186;-118.630;2023-01-15T04:16:00;98034.64;;;17.15;44.63
64514;BME280;50890;34.186;-118.630;2023-01-15T04:18:30;98037.69;;;16.92;44.66
64514;BME280;50890;34.186;-118.630;2023-01-15T04:21:00;98033.58;;;16.97;44.59
64514;BME280;50890;34.186;-118.630;2023-01-15T04:23:31;98030.46;;;16.95;44.56
64514;BME280;50890;34.186;-118.630;2023-01-15T04:26:02;98020.31;;;17.15;44.62
64514;BME280;50890;34.186;-118.630;2023-01-15T04:28:33;98019.35;;;16.87;44.74
64514;BME280;50890;34.186;-118.630;2023-01-15T04:31:03;98015.28;;;17.10;44.73
64514;BME280;50890;34.186;-118.630;2023-01-15T04:33:35;98014.23;;;17.11;44.72
64514;BME280;50890;34.186;-118.630;2023-01-15T04:36:05;98008.09;;;17.11;44.75
64514;BME280;50890;34.186;-118.630;2023-01-15T04:38:37;98015.16;;;17.07;44.81
64514;BME280;50890;34.186;-118.630;2023-01-15T04:41:06;98012.32;;;17.09;44.78
64514;BME280;50890;34.186;-118.630;2023-01-15T04:43:36;98016.61;;;17.11;44.74
64514;BME280;50890;34.186;-118.630;2023-01-15T04:46:06;98022.30;;;17.09;44.79
64514;BME280;50890;34.186;-118.630;2023-01-15T04:48:37;98032.22;;;17.04;44.88
64514;BME280;50890;34.186;-118.630;2023-01-15T04:51:08;98035.87;;;17.10;44.80
64514;BME280;50890;34.186;-118.630;2023-01-15T04:53:39;98029.29;;;17.12;44.76
64514;BME280;50890;34.186;-118.630;2023-01-15T04:56:10;98023.55;;;17.15;44.71
64514;BME280;50890;34.186;-118.630;2023-01-15T04:58:40;98033.18;;;16.89;44.77
64514;BME280;50890;34.186;-118.630;2023-01-15T05:01:11;98033.29;;;17.08;44.81
64514;BME280;50890;34.186;-118.630;2023-01-15T05:03:42;98031.25;;;17.07;44.83
64514;BME280;50890;34.186;-118.630;2023-01-15T05:06:12;98036.91;;;16.85;44.86
64514;BME280;50890;34.186;-118.630;2023-01-15T05:08:43;98045.60;;;17.15;44.84
64514;BME280;50890;34.186;-118.630;2023-01-15T05:11:14;98051.76;;;17.25;44.66
64514;BME280;50890;34.186;-118.630;2023-01-15T05:13:44;98043.25;;;17.12;44.84
64514;BME280;50890;34.186;-118.630;2023-01-15T05:16:16;98044.12;;;17.17;44.80
64514;BME280;50890;34.186;-118.630;2023-01-15T05:18:49;98045.39;;;17.16;44.87
64514;BME280;50890;34.186;-118.630;2023-01-15T05:21:21;98047.73;;;16.95;44.87
64514;BME280;50890;34.186;-118.630;2023-01-15T05:23:54;98049.13;;;17.06;44.79
64514;BME280;50890;34.186;-118.630;2023-01-15T05:26:26;98049.13;;;17.28;44.83
64514;BME280;50890;34.186;-118.630;2023-01-15T05:28:58;98060.08;;;17.32;44.86
64514;BME280;50890;34.186;-118.630;2023-01-15T05:31:28;98068.24;;;17.05;44.93
64514;BME280;50890;34.186;-118.630;2023-01-15T05:33:59;98075.62;;;17.32;44.90
64514;BME280;50890;34.186;-118.630;2023-01-15T05:36:31;98070.85;;;17.30;45.00
64514;BME280;50890;34.186;-118.630;2023-01-15T05:39:02;98065.83;;;17.30;45.04
64514;BME280;50890;34.186;-118.630;2023-01-15T05:41:32;98067.22;;;17.26;45.14
64514;BME280;50890;34.186;-118.630;2023-01-15T05:44:04;98064.47;;;17.22;45.22
64514;BME280;50890;34.186;-118.630;2023-01-15T05:46:36;98065.67;;;17.28;45.17
64514;BME280;50890;34.186;-118.630;2023-01-15T05:49:08;98066.04;;;17.27;45.22
64514;BME280;50890;34.186;-118.630;2023-01-15T05:51:39;98065.06;;;17.29;45.20
64514;BME280;50890;34.186;-118.630;2023-01-15T05:54:13;98066.83;;;17.07;45.21
64514;BME280;50890;34.186;-118.630;2023-01-15T05:56:44;98059.88;;;17.32;45.19
64514;BME280;50890;34.186;-118.630;2023-01-15T05:59:15;98055.96;;;17.30;45.22
64514;BME280;50890;34.186;-118.630;2023-01-15T06:01:47;98055.35;;;17.30;45.25
64514;BME280;50890;34.186;-118.630;2023-01-15T06:04:19;98057.59;;;17.28;45.28
64514;BME280;50890;34.186;-118.630;2023-01-15T06:06:51;98067.71;;;17.37;45.16
64514;BME280;50890;34.186;-118.630;2023-01-15T06:09:21;98066.72;;;17.58;45.15
64514;BME280;50890;34.186;-118.630;2023-01-15T06:11:52;98069.34;;;17.22;45.07
64514;BME280;50890;34.186;-118.630;2023-01-15T06:14:23;98068.00;;;17.48;45.02
64514;BME280;50890;34.186;-118.630;2023-01-15T06:16:54;98068.85;;;17.39;45.17
64514;BME280;50890;34.186;-118.630;2023-01-15T06:19:24;98071.74;;;17.17;45.21
64514;BME280;50890;34.186;-118.630;2023-01-15T06:21:56;98073.56;;;17.30;45.37
64514;BME280;50890;34.186;-118.630;2023-01-15T06:24:26;98071.70;;;17.37;45.31
64514;BME280;50890;34.186;-118.630;2023-01-15T06:26:56;98069.23;;;17.41;45.28
64514;BME280;50890;34.186;-118.630;2023-01-15T06:29:28;98066.82;;;17.44;45.30
64514;BME280;50890;34.186;-118.630;2023-01-15T06:31:58;98060.09;;;17.33;45.16
64514;BME280;50890;34.186;-118.630;2023-01-15T06:34:28;98052.90;;;17.02;45.25
64514;BME280;50890;34.186;-118.630;2023-01-15T06:36:59;98045.67;;;17.49;45.32
64514;BME280;50890;34.186;-118.630;2023-01-15T06:39:29;98050.08;;;17.44;45.44
64514;BME280;50890;34.186;-118.630;2023-01-15T06:41:59;98059.62;;;17.48;45.40
64514;BME280;50890;34.186;-118.630;2023-01-15T06:44:30;98069.03;;;17.46;45.46
64514;BME280;50890;34.186;-118.630;2023-01-15T06:47:07;98070.64;;;17.46;45.46
64514;BME280;50890;34.186;-118.630;2023-01-15T06:49:42;98062.50;;;17.20;45.52
64514;BME280;50890;34.186;-118.630;2023-01-15T06:52:13;98047.01;;;17.27;45.42
64514;BME280;50890;34.186;-118.630;2023-01-15T06:54:45;98054.21;;;17.45;45.51
64514;BME280;50890;34.186;-118.630;2023-01-15T06:57:16;98070.15;;;17.26;45.45
64514;BME280;50890;34.186;-118.630;2023-01-15T06:59:46;98053.42;;;17.25;45.46
64514;BME280;50890;34.186;-118.630;2023-01-15T07:02:18;98036.85;;;17.21;45.56
64514;BME280;50890;34.186;-118.630;2023-01-15T07:04:49;98039.34;;;17.23;45.47
64514;BME280;50890;34.186;-118.630;2023-01-15T07:07:20;98058.11;;;17.44;45.55
64514;BME280;50890;34.186;-118.630;2023-01-15T07:09:51;98055.05;;;17.52;45.45
64514;BME280;50890;34.186;-118.630;2023-01-15T07:12:21;98052.08;;;17.51;45.42
64514;BME280;50890;34.186;-118.630;2023-01-15T07:14:53;98048.20;;;17.24;45.47
64514;BME280;50890;34.186;-118.630;2023-01-15T07:17:22;98051.88;;;17.54;45.37
64514;BME280;50890;34.186;-118.630;2023-01-15T07:19:53;98050.11;;;17.33;45.37
64514;BME280;50890;34.186;-118.630;2023-01-15T07:22:23;98055.06;;;17.00;45.47
64514;BME280;50890;34.186;-118.630;2023-01-15T07:24:53;98057.49;;;17.50;45.42
64514;BME280;50890;34.186;-118.630;2023-01-15T07:27:23;98055.94;;;17.61;45.25
64514;BME280;50890;34.186;-118.630;2023-01-15T07:29:52;98063.25;;;17.36;45.28
64514;BME280;50890;34.186;-118.630;2023-01-15T07:32:23;98060.20;;;17.30;45.37
64514;BME280;50890;34.186;-118.630;2023-01-15T07:34:53;98056.48;;;17.23;45.47
64514;BME280;50890;34.186;-118.630;2023-01-15T07:37:24;98056.93;;;16.95;45.46
64514;BME280;50890;34.186;-118.630;2023-01-15T07:39:54;98045.49;;;17.45;45.43
64514;BME280;50890;34.186;-118.630;2023-01-15T07:42:24;98042.75;;;17.53;45.29
64514;BME280;50890;34.186;-118.630;2023-01-15T07:44:54;98038.05;;;17.30;45.27
64514;BME280;50890;34.186;-118.630;2023-01-15T07:47:25;98045.22;;;17.28;45.30
64514;BME280;50890;34.186;-118.630;2023-01-15T07:49:57;98034.94;;;17.59;45.16
64514;BME280;50890;34.186;-118.630;2023-01-15T07:52:28;98026.98;;;17.28;45.25
64514;BME280;50890;34.186;-118.630;2023-01-15T07:54:58;98024.06;;;16.97;45.32
64514;BME280;50890;34.186;-118.630;2023-01-15T07:57:28;98024.32;;;17.46;45.30
64514;BME280;50890;34.186;-118.630;2023-01-15T07:59:59;98035.19;;;17.55;45.16
64514;BME280;50890;34.186;-118.630;2023-01-15T08:02:29;98042.86;;;17.41;44.99
64514;BME280;50890;34.186;-118.630;2023-01-15T08:04:59;98031.64;;;17.48;45.19
64514;BME280;50890;34.186;-118.630;2023-01-15T08:07:29;98027.67;;;17.04;45.12
64514;BME280;50890;34.186;-118.630;2023-01-15T08:09:59;98030.82;;;17.51;45.14
64514;BME280;50890;34.186;-118.630;2023-01-15T08:12:30;98027.58;;;17.21;45.24
64514;BME280;50890;34.186;-118.630;2023-01-15T08:14:59;98035.05;;;17.30;45.08
64514;BME280;50890;34.186;-118.630;2023-01-15T08:17:31;98028.98;;;17.25;45.14
64514;BME280;50890;34.186;-118.630;2023-01-15T08:20:03;98028.92;;;17.29;45.05
64514;BME280;50890;34.186;-118.630;2023-01-15T08:22:34;98022.67;;;17.45;45.15
64514;BME280;50890;34.186;-118.630;2023-01-15T08:25:04;98031.08;;;17.23;45.12
64514;BME280;50890;34.186;-118.630;2023-01-15T08:27:34;98025.82;;;17.47;45.08
64514;BME280;50890;34.186;-118.630;2023-01-15T08:30:07;98025.88;;;17.45;45.09
64514;BME280;50890;34.186;-118.630;2023-01-15T08:32:37;98027.46;;;17.37;45.19
64514;BME280;50890;34.186;-118.630;2023-01-15T08:35:09;98019.65;;;17.21;45.08
64514;BME280;50890;34.186;-118.630;2023-01-15T08:37:40;98022.95;;;17.45;45.03
64514;BME280;50890;34.186;-118.630;2023-01-15T08:40:12;98026.81;;;17.45;45.04
64514;BME280;50890;34.186;-118.630;2023-01-15T08:42:42;98027.15;;;17.46;44.96
64514;BME280;50890;34.186;-118.630;2023-01-15T08:45:13;98021.70;;;17.34;45.13
64514;BME280;50890;34.186;-118.630;2023-01-15T08:47:43;98024.22;;;17.39;45.02
64514;BME280;50890;34.186;-118.630;2023-01-15T08:50:14;98030.20;;;17.33;45.11
64514;BME280;50890;34.186;-118.630;2023-01-15T08:52:43;98035.60;;;16.96;44.94
64514;BME280;50890;34.186;-118.630;2023-01-15T08:55:13;98033.60;;;17.11;45.08
64514;BME280;50890;34.186;-118.630;2023-01-15T08:57:44;98035.53;;;17.42;44.95
64514;BME280;50890;34.186;-118.630;2023-01-15T09:00:15;98032.76;;;17.38;44.95
64514;BME280;50890;34.186;-118.630;2023-01-15T09:02:46;98033.83;;;17.15;44.95
64514;BME280;50890;34.186;-118.630;2023-01-15T09:05:17;98037.37;;;17.38;44.91
64514;BME280;50890;34.186;-118.630;2023-01-15T09:07:47;98034.16;;;17.34;44.96
64514;BME280;50890;34.186;-118.630;2023-01-15T09:10:17;98034.27;;;17.12;44.92
64514;BME280;50890;34.186;-118.630;2023-01-15T09:12:47;98036.88;;;17.35;44.92
64514;BME280;50890;34.186;-118.630;2023-01-15T09:15:18;98025.44;;;17.09;44.93
64514;BME280;50890;34.186;-118.630;2023-01-15T09:17:48;98014.17;;;17.41;44.79
64514;BME280;50890;34.186;-118.630;2023-01-15T09:20:19;98018.52;;;17.35;44.83
64514;BME280;50890;34.186;-118.630;2023-01-15T09:22:49;98018.24;;;17.08;44.91
64514;BME280;50890;34.186;-118.630;2023-01-15T09:25:18;98019.36;;;17.07;44.88
64514;BME280;50890;34.186;-118.630;2023-01-15T09:27:49;98023.93;;;17.36;44.79
64514;BME280;50890;34.186;-118.630;2023-01-15T09:30:20;98019.92;;;17.29;44.87
64514;BME280;50890;34.186;-118.630;2023-01-15T09:32:51;98026.64;;;17.28;44.88
64514;BME280;50890;34.186;-118.630;2023-01-15T09:35:21;98037.86;;;17.27;44.87
64514;BME280;50890;34.186;-118.630;2023-01-15T09:37:52;98047.59;;;17.36;44.73
64514;BME280;50890;34.186;-118.630;2023-01-15T09:40:35;98052.59;;;17.18;44.64
64514;BME280;50890;34.186;-118.630;2023-01-15T09:43:20;98053.54;;;17.45;44.56
64514;BME280;50890;34.186;-118.630;2023-01-15T09:45:57;98045.70;;;17.15;44.65
64514;BME280;50890;34.186;-118.630;2023-01-15T09:48:44;98055.68;;;17.35;44.66
64514;BME280;50890;34.186;-118.630;2023-01-15T09:51:25;98052.90;;;17.11;44.67
64514;BME280;50890;34.186;-118.630;2023-01-15T09:54:07;98052.18;;;17.10;44.69
64514;BME280;50890;34.186;-118.630;2023-01-15T09:56:43;98049.65;;;17.27;44.72
64514;BME280;50890;34.186;-118.630;2023-01-15T09:59:21;98049.72;;;17.20;44.81
64514;BME280;50890;34.186;-118.630;2023-01-15T10:01:55;98048.08;;;17.21;44.79
64514;BME280;50890;34.186;-118.630;2023-01-15T10:04:35;98032.91;;;17.27;44.71
64514;BME280;50890;34.186;-118.630;2023-01-15T10:07:15;98037.12;;;17.13;44.85
64514;BME280;50890;34.186;-118.630;2023-01-15T10:09:53;98044.32;;;17.18;44.77
64514;BME280;50890;34.186;-118.630;2023-01-15T10:12:28;98040.27;;;17.15;44.79
64514;BME280;50890;34.186;-118.630;2023-01-15T10:15:04;98041.46;;;17.21;44.70
64514;BME280;50890;34.186;-118.630;2023-01-15T10:17:39;98045.07;;;17.06;44.57
64514;BME280;50890;34.186;-118.630;2023-01-15T10:20:21;98029.77;;;17.42;44.67
64514;BME280;50890;34.186;-118.630;2023-01-15T10:23:11;98029.70;;;17.14;44.73
64514;BME280;50890;34.186;-118.630;2023-01-15T10:25:48;98026.02;;;17.19;44.66
64514;BME280;50890;34.186;-118.630;2023-01-15T10:28:22;98024.37;;;17.18;44.66
64514;BME280;50890;34.186;-118.630;2023-01-15T10:30:55;98023.83;;;17.19;44.62
64514;BME280;50890;34.186;-118.630;2023-01-15T10:33:43;98021.82;;;17.14;44.68
64514;BME280;50890;34.186;-118.630;2023-01-15T10:36:18;98023.80;;;17.14;44.67
64514;BME280;50890;34.186;-118.630;2023-01-15T10:38:56;98030.65;;;16.84;44.80
64514;BME280;50890;34.186;-118.630;2023-01-15T10:41:38;98031.92;;;17.10;44.73
64514;BME280;50890;34.186;-118.630;2023-01-15T10:44:16;98029.48;;;17.09;44.71
64514;BME280;50890;34.186;-118.630;2023-01-15T10:46:52;98031.08;;;17.13;44.66
64514;BME280;50890;34.186;-118.630;2023-01-15T10:49:28;98038.05;;;17.11;44.66
64514;BME280;50890;34.186;-118.630;2023-01-15T10:52:04;98039.46;;;17.05;44.73
64514;BME280;50890;34.186;-118.630;2023-01-15T10:54:39;98043.23;;;17.03;44.78
64514;BME280;50890;34.186;-118.630;2023-01-15T10:57:16;98040.18;;;17.07;44.69
64514;BME280;50890;34.186;-118.630;2023-01-15T10:59:55;98041.49;;;16.80;44.73
64514;BME280;50890;34.186;-118.630;2023-01-15T11:02:30;98040.92;;;17.04;44.74
64514;BME280;50890;34.186;-118.630;2023-01-15T11:05:05;98051.03;;;17.05;44.73
64514;BME280;50890;34.186;-118.630;2023-01-15T11:07:38;98056.61;;;17.06;44.67
64514;BME280;50890;34.186;-118.630;2023-01-15T11:10:12;98055.60;;;17.05;44.67
64514;BME280;50890;34.186;-118.630;2023-01-15T11:12:49;98061.40;;;17.08;44.59
64514;BME280;50890;34.186;-118.630;2023-01-15T11:15:24;98057.75;;;16.92;44.84
64514;BME280;50890;34.186;-118.630;2023-01-15T11:17:53;98055.11;;;16.92;44.81
64514;BME280;50890;34.186;-118.630;2023-01-15T11:20:29;98049.36;;;16.95;44.77
64514;BME280;50890;34.186;-118.630;2023-01-15T11:23:07;98046.10;;;16.96;44.73
64514;BME280;50890;34.186;-118.630;2023-01-15T11:25:46;98038.54;;;17.03;44.58
64514;BME280;50890;34.186;-118.630;2023-01-15T11:28:16;98035.43;;;16.94;44.69
64514;BME280;50890;34.186;-118.630;2023-01-15T11:30:53;98033.30;;;16.87;44.82
64514;BME280;50890;34.186;-118.630;2023-01-15T11:33:26;98038.61;;;16.89;44.77
64514;BME280;50890;34.186;-118.630;2023-01-15T11:35:58;98038.35;;;16.75;44.64
64514;BME280;50890;34.186;-118.630;2023-01-15T11:38:36;98050.73;;;16.91;44.71
64514;BME280;50890;34.186;-118.630;2023-01-15T11:41:21;98051.71;;;17.02;44.60
64514;BME280;50890;34.186;-118.630;2023-01-15T11:43:59;98051.93;;;16.93;44.64
64514;BME280;50890;34.186;-118.630;2023-01-15T11:46:30;98053.39;;;16.91;44.67
64514;BME280;50890;34.186;-118.630;2023-01-15T11:49:06;98056.89;;;16.72;44.57
64514;BME280;50890;34.186;-118.630;2023-01-15T11:51:41;98062.23;;;16.93;44.57
64514;BME280;50890;34.186;-118.630;2023-01-15T11:54:13;98058.67;;;16.93;44.58
64514;BME280;50890;34.186;-118.630;2023-01-15T11:56:45;98053.42;;;16.81;44.39
64514;BME280;50890;34.186;-118.630;2023-01-15T11:59:18;98049.65;;;16.91;44.57
64514;BME280;50890;34.186;-118.630;2023-01-15T12:01:51;98047.87;;;16.85;44.65
64514;BME280;50890;34.186;-118.630;2023-01-15T12:04:29;98048.56;;;16.91;44.53
64514;BME280;50890;34.186;-118.630;2023-01-15T12:07:02;98052.47;;;16.72;44.47
64514;BME280;50890;34.186;-118.630;2023-01-15T12:09:46;98056.03;;;16.94;44.45
64514;BME280;50890;34.186;-118.630;2023-01-15T12:12:29;98061.74;;;16.86;44.58
64514;BME280;50890;34.186;-118.630;2023-01-15T12:15:11;98065.72;;;16.83;44.61
64514;BME280;50890;34.186;-118.630;2023-01-15T12:17:59;98079.91;;;17.08;44.54
64514;BME280;50890;34.186;-118.630;2023-01-15T12:20:47;98090.30;;;16.80;44.58
64514;BME280;50890;34.186;-118.630;2023-01-15T12:23:46;98096.93;;;17.05;44.52
64514;BME280;50890;34.186;-118.630;2023-01-15T12:26:24;98102.06;;;16.82;44.53
64514;BME280;50890;34.186;-118.630;2023-01-15T12:29:03;98102.60;;;16.84;44.50
64514;BME280;50890;34.186;-118.630;2023-01-15T12:31:39;98101.75;;;16.82;44.48
64514;BME280;50890;34.186;-118.630;2023-01-15T12:34:20;98104.27;;;16.85;44.54
64514;BME280;50890;34.186;-118.630;2023-01-15T12:36:56;98094.72;;;16.79;44.53
64514;BME280;50890;34.186;-118.630;2023-01-15T12:39:31;98094.49;;;16.78;44.57
64514;BME280;50890;34.186;-118.630;2023-01-15T12:42:06;98090.20;;;16.80;44.46
64514;BME280;50890;34.186;-118.630;2023-01-15T12:44:40;98097.59;;;16.61;44.40
64514;BME280;50890;34.186;-118.630;2023-01-15T12:47:18;98102.37;;;16.98;44.45
64514;BME280;50890;34.186;-118.630;2023-01-15T12:49:55;98105.40;;;16.78;44.53
64514;BME280;50890;34.186;-118.630;2023-01-15T12:52:32;98087.55;;;16.69;44.51
64514;BME280;50890;34.186;-118.630;2023-01-15T12:55:12;98075.12;;;16.74;44.48
64514;BME280;50890;34.186;-118.630;2023-01-15T12:57:46;98075.41;;;16.72;44.45
64514;BME280;50890;34.186;-118.630;2023-01-15T13:00:20;98081.87;;;16.82;44.30